Time;durP1;ratioP1;P1;durP2;ratioP2;P2;SDS_P1;SDS_P2;PMS_P1;PMS_P2;Temp;Humidity;BMP_temperature;BMP_pressure;BME280_temperature;BME280_humidity;BME280_pressure;Samples;Min_cycle;Max_cycle;Signal;HPM_P1;HPM_P2
2023/04/18 00:00:48;;;;;;;34.40;25.90;;;;;;;9.36;75.45;101184.77;113973;1231;22703;-84
2023/04/18 00:03:28;;;;;;;28.50;25.70;;;;;;;9.34;75.55;101182.54;114003;1231;21938;-81
2023/04/18 00:06:10;;;;;;;26.30;23.80;;;;;;;9.34;75.51;101185.15;113534;1235;23027;-82
2023/04/18 00:09:05;;;;;;;25.90;23.40;;;;;;;9.32;75.65;101184.83;113712;1235;22952;-82
2023/04/18 00:11:45;;;;;;;25.10;22.60;;;;;;;9.29;75.76;101186.10;113847;1235;21952;-82
2023/04/18 00:14:23;;;;;;;28.70;26.10;;;;;;;9.26;75.84;101182.35;113911;1235;22093;-84
2023/04/18 00:16:54;;;;;;;53.80;49.50;;;;;;;9.25;75.85;101180.80;113775;1235;21949;-82
2023/04/18 00:19:23;;;;;;;54.50;50.30;;;;;;;9.27;75.98;101180.77;113696;1235;23023;-83
2023/04/18 00:21:56;;;;;;;53.10;48.50;;;;;;;9.26;76.03;101182.70;113675;1235;23698;-84
2023/04/18 00:24:32;;;;;;;55.50;50.80;;;;;;;9.22;76.13;101182.77;113552;1235;23681;-83
2023/04/18 00:27:11;;;;;;;48.80;44.90;;;;;;;9.19;76.30;101179.70;113479;1235;21937;-82
2023/04/18 00:29:43;;;;;;;51.00;46.80;;;;;;;9.20;76.37;101183.33;113813;1226;21941;-82
2023/04/18 00:32:19;;;;;;;53.80;49.30;;;;;;;9.16;76.49;101180.27;113724;1235;23075;-81
2023/04/18 00:34:48;;;;;;;53.80;49.30;;;;;;;9.17;76.51;101178.70;113395;1235;21976;-82
2023/04/18 00:37:22;;;;;;;53.30;48.80;;;;;;;9.20;76.53;101181.08;113619;1235;21963;-82
2023/04/18 00:39:53;;;;;;;49.60;45.30;;;;;;;9.22;76.73;101180.52;113522;1235;23623;-81
2023/04/18 00:42:26;;;;;;;36.80;33.50;;;;;;;9.22;76.61;101178.95;113597;1235;22054;-83
2023/04/18 00:44:58;;;;;;;34.30;31.20;;;;;;;9.20;76.57;101180.38;113715;1231;22146;-83
2023/04/18 00:47:28;;;;;;;29.40;26.50;;;;;;;9.18;76.59;101178.34;114215;1231;21953;-83
2023/04/18 00:49:58;;;;;;;27.80;25.30;;;;;;;9.17;76.72;101175.22;113973;1231;22151;-84
2023/04/18 00:52:34;;;;;;;24.50;22.30;;;;;;;9.18;76.80;101174.00;113962;1231;21949;-83
2023/04/18 00:55:40;;;;;;;25.10;22.60;;;;;;;9.17;76.90;101174.52;114017;1231;22689;-85
2023/04/18 00:58:17;;;;;;;29.00;26.30;;;;;;;9.17;76.86;101173.84;113487;1237;22959;-83
2023/04/18 01:00:53;;;;;;;26.50;24.00;;;;;;;9.16;76.84;101173.51;113716;1237;21947;-84
2023/04/18 01:03:25;;;;;;;25.40;22.80;;;;;;;9.15;76.91;101175.26;113607;1237;22006;-85
2023/04/18 01:06:00;;;;;;;26.30;23.60;;;;;;;9.13;76.86;101178.07;113310;1236;21945;-81
2023/04/18 01:08:31;;;;;;;26.90;24.50;;;;;;;9.14;77.07;101177.55;113589;1236;21948;-83
2023/04/18 01:11:29;;;;;;;27.80;25.10;;;;;;;9.13;77.03;101174.41;113135;1237;21963;-84
2023/04/18 01:14:05;;;;;;;28.10;25.30;;;;;;;9.12;76.95;101178.26;113399;1237;22994;-83
2023/04/18 01:16:39;;;;;;;27.40;24.80;;;;;;;9.13;77.11;101175.30;113399;1231;23686;-81
2023/04/18 01:19:09;;;;;;;26.30;23.90;;;;;;;9.14;77.00;101173.88;113930;1231;21977;-84
2023/04/18 01:21:42;;;;;;;25.20;22.80;;;;;;;9.15;77.16;101176.11;113905;1231;21983;-85
2023/04/18 01:24:28;;;;;;;26.30;23.90;;;;;;;9.13;77.17;101175.80;114126;1231;21949;-83
2023/04/18 01:27:05;;;;;;;28.00;25.30;;;;;;;9.12;77.30;101173.40;114073;1231;21935;-86
2023/04/18 01:30:12;;;;;;;24.80;22.50;;;;;;;9.11;77.32;101172.91;114031;1231;22421;-85
2023/04/18 01:32:47;;;;;;;27.10;24.60;;;;;;;9.13;77.34;101173.05;113905;1231;21963;-82
2023/04/18 01:35:16;;;;;;;25.00;22.60;;;;;;;9.14;77.31;101172.69;113896;1231;24342;-84
2023/04/18 01:37:46;;;;;;;26.00;23.40;;;;;;;9.13;77.24;101171.98;113427;1236;22103;-83
2023/04/18 01:40:21;;;;;;;25.70;23.40;;;;;;;9.13;77.26;101171.98;113650;1236;22496;-83
2023/04/18 01:42:51;;;;;;;24.10;21.80;;;;;;;9.11;77.22;101172.91;113540;1236;23586;-83
2023/04/18 01:45:24;;;;;;;25.80;23.30;;;;;;;9.12;77.36;101175.85;113073;1236;23662;-82
2023/04/18 01:47:58;;;;;;;28.10;25.50;;;;;;;9.12;77.33;101178.28;113234;1236;23593;-82
2023/04/18 01:50:27;;;;;;;53.60;49.00;;;;;;;9.12;77.50;101179.31;113826;1236;23558;-81
2023/04/18 01:53:02;;;;;;;52.50;48.10;;;;;;;9.10;77.34;101180.21;113535;1236;21993;-83
2023/04/18 01:55:38;;;;;;;50.80;46.70;;;;;;;9.09;77.45;101181.10;113523;1236;22916;-83
2023/04/18 01:58:09;;;;;;;54.60;49.00;;;;;;;9.08;77.45;101176.95;113610;1236;23679;-82
2023/04/18 02:00:41;;;;;;;46.70;42.90;;;;;;;9.08;77.37;101175.91;113672;1236;23609;-80
2023/04/18 02:03:14;;;;;;;32.00;29.30;;;;;;;9.07;77.42;101178.17;113775;1231;22128;-82
2023/04/18 02:05:45;;;;;;;37.30;33.80;;;;;;;9.05;77.43;101176.66;113948;1231;21939;-82
2023/04/18 02:08:14;;;;;;;40.80;37.20;;;;;;;8.97;77.47;101171.77;113893;1231;22250;-84
2023/04/18 02:10:48;;;;;;;32.40;29.50;;;;;;;9.02;77.55;101176.70;113851;1231;23044;-81
2023/04/18 02:13:21;;;;;;;35.40;32.20;;;;;;;9.03;77.63;101177.22;113706;1231;22477;-82
2023/04/18 02:16:11;;;;;;;33.20;30.10;;;;;;;9.05;77.61;101179.62;113711;1231;22953;-82
2023/04/18 02:18:42;;;;;;;27.80;25.00;;;;;;;9.03;77.60;101177.56;113842;1231;22000;-82
2023/04/18 02:21:11;;;;;;;24.80;22.60;;;;;;;9.02;77.62;101176.71;113664;1231;22963;-81
2023/04/18 02:23:42;;;;;;;25.40;23.10;;;;;;;9.00;77.70;101175.18;113919;1222;21935;-82
2023/04/18 02:26:16;;;;;;;22.80;20.80;;;;;;;9.01;77.72;101175.70;113945;1231;22007;-83
2023/04/18 02:28:47;;;;;;;26.10;23.50;;;;;;;9.02;77.73;101173.77;113987;1231;23037;-83
2023/04/18 02:31:15;;;;;;;24.10;21.70;;;;;;;9.02;77.84;101172.38;113989;1231;23073;-83
2023/04/18 02:33:46;;;;;;;24.00;21.90;;;;;;;9.01;77.70;101172.91;113997;1231;22999;-81
2023/04/18 02:36:15;;;;;;;26.10;23.40;;;;;;;9.01;77.71;101173.27;113793;1231;21927;-82
2023/04/18 02:38:48;;;;;;;24.60;22.40;;;;;;;9.00;77.79;101175.01;114145;1231;21945;-81
2023/04/18 02:41:25;;;;;;;22.80;20.60;;;;;;;9.01;77.94;101170.84;113800;1231;21950;-82
2023/04/18 02:43:57;;;;;;;23.00;20.70;;;;;;;9.01;77.82;101173.79;113715;1231;22333;-81
2023/04/18 02:46:31;;;;;;;24.60;22.20;;;;;;;9.00;77.92;101175.89;113711;1231;21937;-82
2023/04/18 02:49:06;;;;;;;24.60;22.30;;;;;;;9.00;77.88;101176.41;113919;1231;21960;-80
2023/04/18 02:51:41;;;;;;;25.40;22.90;;;;;;;8.98;77.80;101176.79;113933;1231;24248;-82
2023/04/18 02:54:10;;;;;;;25.00;22.60;;;;;;;8.96;77.90;101174.91;113973;1231;22928;-83
2023/04/18 02:56:57;;;;;;;25.40;23.00;;;;;;;8.93;77.93;101173.92;113985;1231;23048;-82
2023/04/18 02:59:44;;;;;;;25.20;22.60;;;;;;;8.91;77.99;101174.31;113927;1231;23015;-82
2023/04/18 03:02:32;;;;;;;27.00;24.50;;;;;;;8.89;78.05;101173.30;114249;1231;21944;-81
2023/04/18 03:05:29;;;;;;;25.40;23.10;;;;;;;8.89;78.09;101176.94;113685;1225;21937;-82
2023/04/18 03:08:05;;;;;;;25.90;23.50;;;;;;;8.89;78.12;101179.02;113898;1231;21954;-82
2023/04/18 03:10:37;;;;;;;25.50;23.10;;;;;;;8.90;78.12;101177.80;113457;1231;22290;-82
2023/04/18 03:13:12;;;;;;;25.40;22.90;;;;;;;8.89;78.19;101178.14;113685;1231;23449;-82
2023/04/18 03:15:44;;;;;;;28.20;25.50;;;;;;;8.90;78.16;101175.88;113745;1231;21945;-82
2023/04/18 03:18:14;;;;;;;35.30;32.00;;;;;;;8.89;78.14;101174.16;113815;1231;23054;-82
2023/04/18 03:20:59;;;;;;;30.10;27.20;;;;;;;8.90;78.11;101173.63;113751;1231;21960;-82
2023/04/18 03:23:39;;;;;;;29.60;26.60;;;;;;;8.91;78.14;101171.89;113843;1231;23743;-82
2023/04/18 03:26:18;;;;;;;29.80;26.80;;;;;;;8.92;78.06;101174.30;113884;1231;21934;-82
2023/04/18 03:29:02;;;;;;;30.90;27.90;;;;;;;8.90;78.11;101173.27;113899;1231;21931;-82
2023/04/18 03:31:37;;;;;;;29.60;26.80;;;;;;;8.90;78.15;101169.30;113795;1231;23668;-83
2023/04/18 03:34:11;;;;;;;27.20;24.50;;;;;;;8.90;78.19;101173.63;113803;1231;22115;-84
2023/04/18 03:36:46;;;;;;;28.10;25.40;;;;;;;8.91;78.20;101173.08;113736;1231;23034;-83
2023/04/18 03:39:24;;;;;;;29.40;26.50;;;;;;;8.93;78.25;101173.57;113962;1231;21945;-82
2023/04/18 03:41:54;;;;;;;28.20;25.20;;;;;;;8.94;78.11;101174.95;113696;1223;22996;-81
2023/04/18 03:44:34;;;;;;;29.60;26.80;;;;;;;8.96;78.21;101175.95;113955;1231;21945;-83
2023/04/18 03:47:13;;;;;;;28.70;25.90;;;;;;;8.98;78.21;101178.52;113905;1231;21948;-83
2023/04/18 03:50:01;;;;;;;;;;;;;;;;;;;;;
2023/04/18 03:52:31;;;;;;;31.40;28.30;;;;;;;8.95;77.99;101179.78;113989;1231;22001;-83
2023/04/18 03:55:00;;;;;;;29.80;27.00;;;;;;;8.95;78.06;101182.23;114185;1231;21943;-83
2023/04/18 03:57:33;;;;;;;29.70;26.80;;;;;;;8.95;78.15;101182.76;113982;1231;21937;-82
2023/04/18 04:00:04;;;;;;;30.90;27.80;;;;;;;8.97;78.11;101183.92;113839;1231;22073;-82
2023/04/18 04:02:43;;;;;;;35.40;31.70;;;;;;;9.00;78.08;101187.16;113879;1231;21937;-82
2023/04/18 04:05:20;;;;;;;38.00;34.10;;;;;;;9.01;78.02;101189.41;114043;1231;22049;-82
2023/04/18 04:07:57;;;;;;;34.00;30.40;;;;;;;9.00;78.01;101190.30;113855;1231;22003;-82
2023/04/18 04:10:26;;;;;;;33.00;29.60;;;;;;;9.00;77.96;101193.95;113827;1231;21926;-84
2023/04/18 04:12:57;;;;;;;;;;;;;;;8.97;77.92;101197.29;113889;1231;21878;-82
2023/04/18 04:15:28;;;;;;;31.30;28.10;;;;;;;8.86;78.01;101195.39;113836;1231;21954;-82
2023/04/18 04:18:02;;;;;;;30.40;27.20;;;;;;;8.84;78.16;101194.91;114037;1231;21982;-82
2023/04/18 04:20:31;;;;;;;31.00;27.90;;;;;;;8.87;78.31;101198.52;113871;1231;21966;-83
2023/04/18 04:23:09;;;;;;;29.50;26.60;;;;;;;8.87;78.21;101199.73;113830;1231;22705;-83
2023/04/18 04:25:38;;;;;;;33.30;29.80;;;;;;;8.93;78.23;101201.52;113959;1231;23574;-82
2023/04/18 04:28:15;;;;;;;33.40;29.90;;;;;;;8.98;78.22;101204.91;114078;1231;22131;-82
2023/04/18 04:31:05;;;;;;;35.90;32.20;;;;;;;9.00;78.12;101204.18;113708;1231;23668;-81
2023/04/18 04:33:38;;;;;;;34.60;31.00;;;;;;;9.01;78.09;101206.94;114176;1231;22997;-82
2023/04/18 04:36:15;;;;;;;32.80;29.60;;;;;;;9.02;78.05;101210.21;114042;1231;23008;-84
2023/04/18 04:38:48;;;;;;;33.80;30.20;;;;;;;9.02;77.85;101212.13;114080;1231;21982;-83
2023/04/18 04:41:29;;;;;;;34.80;31.20;;;;;;;9.00;77.97;101213.56;113806;1231;22996;-82
2023/04/18 04:44:05;;;;;;;32.20;29.20;;;;;;;9.00;77.81;101212.70;114049;1224;21936;-82
2023/04/18 04:46:40;;;;;;;33.80;30.10;;;;;;;8.98;77.88;101215.34;113965;1231;23683;-83
2023/04/18 04:49:17;;;;;;;33.50;30.10;;;;;;;8.97;77.82;101214.83;114001;1231;22996;-80
2023/04/18 04:51:51;;;;;;;34.00;30.70;;;;;;;8.98;77.73;101218.45;114214;1231;22010;-81
2023/04/18 04:54:23;;;;;;;33.30;29.90;;;;;;;8.96;77.81;101217.45;113733;1231;23015;-82
2023/04/18 04:56:55;;;;;;;34.90;31.30;;;;;;;8.96;77.74;101219.16;114183;1231;21962;-81
2023/04/18 04:59:42;;;;;;;37.60;33.70;;;;;;;8.97;77.77;101221.94;113940;1231;23065;-81
2023/04/18 05:02:28;;;;;;;34.60;31.00;;;;;;;8.94;77.69;101223.89;114078;1231;22280;-81
2023/04/18 05:05:22;;;;;;;35.60;32.00;;;;;;;8.88;77.73;101221.75;114293;1231;21938;-81
2023/04/18 05:08:03;;;;;;;38.50;34.60;;;;;;;8.89;77.84;101229.36;114152;1231;21989;-81
2023/04/18 05:10:40;;;;;;;36.20;32.60;;;;;;;8.93;77.80;101226.52;114197;1231;23594;-81
2023/04/18 05:13:22;;;;;;;30.10;27.10;;;;;;;8.93;77.74;101229.30;113824;1231;23575;-81
2023/04/18 05:16:04;;;;;;;33.70;30.40;;;;;;;8.90;77.74;101232.13;113688;1231;22346;-81
2023/04/18 05:18:57;;;;;;;38.60;34.50;;;;;;;8.87;77.82;101232.68;113998;1231;23686;-81
2023/04/18 05:21:55;;;;;;;34.50;30.80;;;;;;;8.89;77.86;101231.62;114037;1231;21976;-82
2023/04/18 05:24:43;;;;;;;;;;;;;;;8.89;77.86;101235.95;113952;1231;21924;-81
2023/04/18 05:27:50;;;;;;;33.50;30.20;;;;;;;8.79;78.13;101234.21;113985;1231;24350;-81
2023/04/18 05:30:49;;;;;;;35.70;32.00;;;;;;;8.80;78.17;101231.95;114088;1231;21943;-81
2023/04/18 05:33:31;;;;;;;32.80;29.20;;;;;;;8.85;78.17;101235.16;113515;1237;23014;-80
2023/04/18 05:36:11;;;;;;;33.20;29.70;;;;;;;8.87;78.05;101236.17;113468;1237;21931;-80
2023/04/18 05:39:21;;;;;;;31.80;28.60;;;;;;;8.85;78.04;101241.06;113663;1237;22434;-79
2023/04/18 05:42:08;;;;;;;36.40;31.80;;;;;;;8.88;78.04;101243.45;113324;1232;21938;-81
2023/04/18 05:45:30;;;;;;;37.20;33.50;;;;;;;8.87;77.96;101239.30;113520;1237;21978;-81
2023/04/18 05:48:40;;;;;;;37.00;33.30;;;;;;;8.86;78.07;101241.57;113191;1241;21970;-80
2023/04/18 05:51:30;;;;;;;37.60;33.90;;;;;;;8.88;78.16;101241.89;113192;1237;21951;-81
2023/04/18 05:54:11;;;;;;;46.30;41.50;;;;;;;8.93;78.22;101235.71;113620;1236;23058;-80
2023/04/18 05:57:23;;;;;;;;;;;;;;;;;;;;;
2023/04/18 06:00:10;;;;;;;37.00;33.20;;;;;;;9.01;78.05;101237.51;113706;1237;23683;-81
2023/04/18 06:02:50;;;;;;;36.10;32.50;;;;;;;9.03;78.09;101234.68;113540;1237;21958;-77
2023/04/18 06:05:19;;;;;;;33.30;29.80;;;;;;;9.07;78.02;101241.04;113356;1231;22865;-79
2023/04/18 06:08:02;;;;;;;34.70;31.30;;;;;;;9.07;77.95;101240.86;113968;1231;22160;-79
2023/04/18 06:10:40;;;;;;;33.80;29.50;;;;;;;9.11;78.11;101242.53;113955;1231;22744;-79
2023/04/18 06:13:18;;;;;;;33.40;30.00;;;;;;;9.17;78.02;101246.93;113988;1225;23787;-81
2023/04/18 06:16:11;;;;;;;36.60;32.60;;;;;;;9.18;77.99;101246.22;113961;1231;23763;-81
2023/04/18 06:18:53;;;;;;;31.80;28.50;;;;;;;9.19;77.90;101251.25;114042;1231;21961;-80
2023/04/18 06:21:38;;;;;;;31.70;28.60;;;;;;;9.18;77.88;101252.13;113998;1231;21923;-81
2023/04/18 06:24:12;;;;;;;31.30;27.90;;;;;;;9.19;77.70;101254.03;113212;1237;21962;-80
2023/04/18 06:26:53;;;;;;;32.90;29.40;;;;;;;9.21;77.80;101257.48;112980;1242;23718;-81
2023/04/18 06:29:33;;;;;;;33.10;28.70;;;;;;;9.24;77.83;101259.32;112729;1242;22094;-82
2023/04/18 06:32:30;;;;;;;31.00;27.80;;;;;;;9.23;77.70;101262.13;112840;1242;21999;-82
2023/04/18 06:35:11;;;;;;;34.00;30.50;;;;;;;9.22;77.63;101262.32;112935;1242;21947;-77
2023/04/18 06:38:08;;;;;;;35.40;32.00;;;;;;;9.26;77.78;101262.95;112372;1245;22478;-81
2023/04/18 06:40:53;;;;;;;34.60;31.20;;;;;;;9.30;77.62;101264.42;112056;1249;24285;-86
2023/04/18 06:43:27;;;;;;;32.90;29.50;;;;;;;9.33;77.48;101269.41;111833;1252;22000;-81
2023/04/18 06:46:07;;;;;;;32.70;29.50;;;;;;;9.31;77.30;101271.88;112032;1248;22384;-80
2023/04/18 06:48:36;;;;;;;36.60;32.80;;;;;;;9.33;77.25;101277.23;112457;1245;22620;-80
2023/04/18 06:51:12;;;;;;;36.50;32.80;;;;;;;9.34;77.38;101273.22;112638;1245;22006;-80
2023/04/18 06:53:51;;;;;;;34.20;30.80;;;;;;;9.39;77.38;101269.32;112106;1249;21964;-80
2023/04/18 06:56:28;;;;;;;33.60;30.20;;;;;;;9.45;77.54;101271.11;111702;1252;21960;-81
2023/04/18 06:58:58;;;;;;;33.20;29.90;;;;;;;9.54;77.41;101270.60;111814;1251;22443;-81
2023/04/18 07:01:34;;;;;;;33.20;29.90;;;;;;;9.59;77.29;101269.98;111892;1245;22067;-80
2023/04/18 07:04:03;;;;;;;33.80;30.40;;;;;;;9.65;77.11;101271.95;112381;1245;23707;-79
2023/04/18 07:06:35;;;;;;;31.50;28.20;;;;;;;9.69;77.01;101271.02;112346;1245;22969;-80
2023/04/18 07:09:04;;;;;;;31.00;27.80;;;;;;;9.70;76.66;101272.04;112526;1245;21984;-80
2023/04/18 07:11:44;;;;;;;32.90;29.40;;;;;;;9.75;76.98;101272.80;112488;1241;21972;-81
2023/04/18 07:14:18;;;;;;;31.10;28.20;;;;;;;9.87;77.20;101274.99;113234;1238;21957;-80
2023/04/18 07:16:56;;;;;;;33.10;29.70;;;;;;;10.00;76.94;101277.88;113180;1236;22001;-79
2023/04/18 07:19:29;;;;;;;32.50;29.50;;;;;;;10.03;76.33;101282.86;113081;1240;23618;-79
2023/04/18 07:22:00;;;;;;;35.10;31.10;;;;;;;10.02;76.16;101281.64;113117;1239;21975;-81
2023/04/18 07:24:29;;;;;;;35.20;31.70;;;;;;;10.04;76.05;101286.12;112456;1245;21948;-80
2023/04/18 07:27:02;;;;;;;37.10;33.50;;;;;;;10.06;75.82;101284.33;112270;1245;21935;-79
2023/04/18 07:29:36;;;;;;;36.70;33.00;;;;;;;10.10;75.74;101288.27;112453;1243;21975;-79
2023/04/18 07:32:11;;;;;;;34.00;30.60;;;;;;;10.13;75.56;101287.84;112479;1243;22546;-79
2023/04/18 07:34:41;;;;;;;34.20;30.80;;;;;;;10.19;75.68;101290.33;112293;1245;22708;-79
2023/04/18 07:37:24;;;;;;;32.00;28.90;;;;;;;10.24;75.59;101288.83;112340;1245;22119;-80
2023/04/18 07:39:56;;;;;;;34.00;30.50;;;;;;;10.29;75.31;101291.88;112528;1244;21962;-80
2023/04/18 07:42:30;;;;;;;34.70;31.00;;;;;;;10.32;74.91;101293.21;113324;1235;21940;-79
2023/04/18 07:45:11;;;;;;;31.70;28.60;;;;;;;10.37;75.02;101292.59;112898;1241;22066;-79
2023/04/18 07:47:44;;;;;;;32.00;28.90;;;;;;;10.45;74.97;101291.54;112121;1246;21950;-79
2023/04/18 07:50:16;;;;;;;31.40;28.30;;;;;;;10.55;75.00;101293.92;112280;1246;23905;-79
2023/04/18 07:52:48;;;;;;;31.30;28.10;;;;;;;10.65;74.81;101298.05;112268;1246;21980;-80
2023/04/18 07:55:20;;;;;;;28.60;25.60;;;;;;;10.77;74.54;101296.41;112469;1246;21953;-80
2023/04/18 07:58:04;;;;;;;31.10;27.60;;;;;;;10.83;74.35;101292.77;112688;1242;22974;-82
2023/04/18 08:00:47;;;;;;;30.00;27.10;;;;;;;10.93;74.24;101300.71;112016;1246;21961;-79
2023/04/18 08:03:22;;;;;;;32.20;28.70;;;;;;;11.01;73.80;101294.77;112380;1241;21938;-81
2023/04/18 08:06:01;;;;;;;28.80;25.70;;;;;;;11.09;73.76;101295.96;113119;1237;22160;-81
2023/04/18 08:08:33;;;;;;;31.60;27.90;;;;;;;11.19;73.43;101305.13;112767;1242;22006;-77
2023/04/18 08:11:05;;;;;;;31.80;28.50;;;;;;;11.22;72.89;101307.14;112471;1242;21979;-81
2023/04/18 08:13:42;;;;;;;31.30;28.10;;;;;;;11.24;72.70;101305.33;112136;1248;22976;-79
2023/04/18 08:16:16;;;;;;;28.90;25.90;;;;;;;11.27;72.49;101302.48;112130;1248;23020;-79
2023/04/18 08:19:00;;;;;;;27.40;24.80;;;;;;;11.32;72.34;101299.73;112492;1243;22103;-80
2023/04/18 08:21:44;;;;;;;29.30;26.20;;;;;;;11.35;72.08;101307.14;113094;1242;22007;-82
2023/04/18 08:24:25;;;;;;;30.40;27.20;;;;;;;11.38;71.97;101308.48;112554;1247;23688;-80
2023/04/18 08:27:02;;;;;;;27.20;24.50;;;;;;;11.37;71.63;101308.48;112836;1241;21947;-79
2023/04/18 08:29:42;;;;;;;29.40;25.80;;;;;;;11.35;71.31;101310.12;113179;1241;22657;-80
2023/04/18 08:32:19;;;;;;;27.20;24.40;;;;;;;11.31;71.01;101314.23;113369;1238;22839;-80
2023/04/18 08:34:51;;;;;;;29.90;26.90;;;;;;;11.28;71.05;101309.95;113271;1241;22472;-82
2023/04/18 08:37:29;;;;;;;28.80;26.10;;;;;;;11.28;71.18;101306.81;113152;1241;21966;-83
2023/04/18 08:40:21;;;;;;;28.50;25.50;;;;;;;11.33;71.06;101314.18;113036;1241;21942;-83
2023/04/18 08:43:08;;;;;;;27.20;24.40;;;;;;;11.36;70.94;101316.36;113225;1236;21956;-82
2023/04/18 08:45:53;;;;;;;28.80;25.70;;;;;;;11.33;70.62;101319.05;112803;1239;21938;-83
2023/04/18 08:48:31;;;;;;;27.60;24.80;;;;;;;11.28;70.49;101318.14;113186;1240;21941;-80
2023/04/18 08:51:10;;;;;;;28.60;25.60;;;;;;;11.29;70.72;101319.85;112994;1240;21962;-82
2023/04/18 08:53:49;;;;;;;30.60;26.70;;;;;;;11.34;70.68;101321.98;112635;1242;21947;-82
2023/04/18 08:56:30;;;;;;;28.70;25.40;;;;;;;11.29;70.47;101322.81;112348;1247;23943;-81
2023/04/18 08:59:19;;;;;;;30.30;27.10;;;;;;;11.24;70.32;101322.42;112510;1247;24346;-82
2023/04/18 09:01:56;;;;;;;29.90;26.80;;;;;;;11.20;70.38;101321.31;112266;1247;22889;-83
2023/04/18 09:04:44;;;;;;;28.70;26.00;;;;;;;11.22;70.63;101321.08;112289;1247;22970;-84
2023/04/18 09:07:19;;;;;;;30.70;27.50;;;;;;;11.26;70.65;101318.36;112080;1248;21953;-82
2023/04/18 09:09:55;;;;;;;33.60;28.30;;;;;;;11.32;70.65;101323.27;112205;1247;21950;-83
2023/04/18 09:12:28;;;;;;;35.10;31.50;;;;;;;11.40;70.80;101321.85;112644;1242;23680;-81
2023/04/18 09:15:13;;;;;;;31.40;28.20;;;;;;;11.50;70.83;101323.67;113250;1236;21958;-82
2023/04/18 09:17:52;;;;;;;36.20;32.30;;;;;;;11.54;70.55;101324.44;113476;1236;22428;-81
2023/04/18 09:20:55;;;;;;;39.50;31.50;;;;;;;11.55;70.40;101320.05;113657;1236;21965;-83
2023/04/18 09:23:38;;;;;;;32.50;28.50;;;;;;;11.57;70.42;101320.87;113932;1231;24642;-84
2023/04/18 09:26:32;;;;;;;30.50;27.40;;;;;;;11.61;70.20;101320.23;113935;1231;22003;-82
2023/04/18 09:29:09;;;;;;;27.50;24.60;;;;;;;11.60;70.07;101315.05;113969;1231;21943;-83
2023/04/18 09:32:00;;;;;;;29.20;26.10;;;;;;;11.58;69.94;101316.49;114004;1231;21962;-83
2023/04/18 09:34:43;;;;;;;37.10;27.60;;;;;;;11.59;70.14;101316.12;114127;1231;22003;-83
2023/04/18 09:37:39;;;;;;;35.40;27.80;;;;;;;11.67;70.45;101316.95;113597;1237;22406;-84
2023/04/18 09:40:17;;;;;;;31.60;27.90;;;;;;;11.76;70.31;101318.10;113650;1237;23674;-83
2023/04/18 09:42:56;;;;;;;29.30;26.00;;;;;;;11.81;70.12;101317.79;112669;1243;21975;-84
2023/04/18 09:46:07;;;;;;;;;;;;;;;;;;;;;
2023/04/18 09:48:45;;;;;;;32.90;29.30;;;;;;;11.83;69.56;101321.41;112912;1242;22949;-83
2023/04/18 09:51:35;;;;;;;33.40;29.10;;;;;;;11.90;69.69;101320.71;112897;1242;22291;-83
2023/04/18 09:54:22;;;;;;;37.70;28.30;;;;;;;11.96;69.56;101320.02;113042;1242;21923;-83
2023/04/18 09:56:57;;;;;;;36.60;28.20;;;;;;;12.01;69.33;101319.70;113689;1237;21951;-82
2023/04/18 10:00:01;;;;;;;32.60;27.10;;;;;;;12.06;69.28;101318.34;113280;1238;21965;-83
2023/04/18 10:03:06;;;;;;;31.10;27.70;;;;;;;12.06;69.07;101318.51;114027;1231;21941;-82
2023/04/18 10:05:41;;;;;;;36.80;30.20;;;;;;;12.06;68.79;101318.33;113452;1236;22245;-85
2023/04/18 10:08:30;;;;;;;31.10;27.90;;;;;;;12.08;68.87;101315.30;113445;1236;21981;-82
2023/04/18 10:10:59;;;;;;;31.80;28.60;;;;;;;12.14;68.74;101310.98;112698;1242;21987;-83
2023/04/18 10:13:31;;;;;;;35.60;31.80;;;;;;;12.18;68.78;101307.88;112175;1248;21924;-82
2023/04/18 10:16:02;;;;;;;34.50;31.10;;;;;;;12.28;68.81;101304.29;112393;1248;24829;-83
2023/04/18 10:18:32;;;;;;;35.40;31.90;;;;;;;12.35;68.61;101301.96;112123;1248;21951;-81
2023/04/18 10:21:09;;;;;;;33.60;30.40;;;;;;;12.51;68.88;101297.29;112106;1247;21942;-84
2023/04/18 10:23:50;;;;;;;35.80;32.20;;;;;;;12.80;69.24;101292.91;112485;1244;21972;-81
2023/04/18 10:26:45;;;;;;;32.70;29.30;;;;;;;12.99;68.49;101290.19;112617;1244;22092;-80
2023/04/18 10:29:17;;;;;;;32.00;28.80;;;;;;;13.13;67.95;101294.45;112457;1245;23687;-82
2023/04/18 10:31:47;;;;;;;32.80;29.40;;;;;;;13.24;67.41;101289.52;112897;1239;21977;-82
2023/04/18 10:34:28;;;;;;;34.00;30.50;;;;;;;13.35;67.28;101284.44;113508;1239;21950;-82
2023/04/18 10:37:05;;;;;;;27.40;23.80;;;;;;;13.56;67.25;101290.20;113429;1237;22679;-81
2023/04/18 10:39:57;;;;;;;29.50;26.40;;;;;;;13.77;66.44;101291.73;113377;1237;22798;-82
2023/04/18 10:42:50;;;;;;;27.30;24.30;;;;;;;13.79;65.21;101289.55;112927;1242;21939;-82
2023/04/18 10:45:27;;;;;;;27.20;24.30;;;;;;;13.78;64.87;101287.84;113111;1242;21956;-81
2023/04/18 10:48:30;;;;;;;26.60;24.00;;;;;;;13.84;64.61;101284.83;112209;1250;21989;-82
2023/04/18 10:51:19;;;;;;;27.70;24.00;;;;;;;13.97;64.39;101283.48;112028;1249;21986;-81
2023/04/18 10:53:56;;;;;;;24.40;21.80;;;;;;;14.04;63.70;101284.96;112323;1249;21977;-82
2023/04/18 10:56:33;;;;;;;25.30;21.00;;;;;;;14.01;63.23;101280.00;112535;1244;21964;-83
2023/04/18 10:59:08;;;;;;;25.70;21.50;;;;;;;14.00;63.00;101279.68;112875;1244;21978;-82
2023/04/18 11:01:42;;;;;;;22.40;19.80;;;;;;;14.03;62.98;101277.13;113305;1239;22137;-81
2023/04/18 11:04:18;;;;;;;24.60;21.60;;;;;;;14.11;63.04;101279.27;112793;1245;21936;-82
2023/04/18 11:06:57;;;;;;;31.10;22.80;;;;;;;14.19;62.71;101281.61;113282;1239;22065;-81
2023/04/18 11:09:37;;;;;;;24.70;22.10;;;;;;;14.23;62.16;101281.11;113379;1239;21951;-83
2023/04/18 11:12:10;;;;;;;23.50;21.20;;;;;;;14.20;61.76;101284.52;113415;1239;22061;-81
2023/04/18 11:14:50;;;;;;;24.00;20.40;;;;;;;14.17;61.47;101282.92;112540;1244;22021;-83
2023/04/18 11:17:25;;;;;;;23.60;21.30;;;;;;;14.16;61.49;101277.89;112701;1244;23581;-81
2023/04/18 11:20:08;;;;;;;30.40;24.50;;;;;;;14.17;61.45;101276.09;112664;1244;21920;-81
2023/04/18 11:22:55;;;;;;;25.40;22.40;;;;;;;14.21;61.42;101278.91;112739;1242;21952;-82
2023/04/18 11:25:34;;;;;;;23.30;21.00;;;;;;;14.23;61.40;101277.95;112947;1242;23616;-81
2023/04/18 11:28:07;;;;;;;25.40;19.90;;;;;;;14.29;61.20;101279.66;113161;1242;22041;-81
2023/04/18 11:30:41;;;;;;;28.10;19.90;;;;;;;14.34;61.24;101274.23;112801;1242;23093;-81
2023/04/18 11:33:12;;;;;;;21.40;19.20;;;;;;;14.45;61.41;101273.07;112803;1242;21966;-81
2023/04/18 11:35:47;;;;;;;21.40;19.30;;;;;;;14.57;61.08;101270.86;112380;1248;23109;-81
2023/04/18 11:38:17;;;;;;;25.50;20.00;;;;;;;14.61;60.55;101266.35;112257;1249;22374;-81
2023/04/18 11:40:49;;;;;;;24.60;20.40;;;;;;;14.67;60.49;101261.20;112369;1248;22036;-81
2023/04/18 11:43:25;;;;;;;23.20;19.20;;;;;;;14.73;60.12;101257.27;112584;1247;23020;-82
2023/04/18 11:46:08;;;;;;;21.20;18.90;;;;;;;14.78;59.73;101258.48;112559;1248;21994;-84
2023/04/18 11:48:45;;;;;;;23.20;20.70;;;;;;;14.78;59.49;101261.44;113015;1242;21985;-81
2023/04/18 11:51:38;;;;;;;18.40;16.60;;;;;;;14.83;59.30;101260.55;112788;1242;21975;-81
2023/04/18 11:54:43;;;;;;;19.90;18.00;;;;;;;14.78;59.20;101262.67;112497;1242;346379;-86
2023/04/18 11:57:31;;;;;;;19.60;17.60;;;;;;;14.79;59.24;101263.88;112447;1248;22013;-81
2023/04/18 12:00:20;;;;;;;20.90;18.70;;;;;;;14.84;59.31;101263.69;112894;1237;21955;-80
2023/04/18 12:03:18;;;;;;;20.20;18.10;;;;;;;14.82;58.84;101258.84;113891;1237;21981;-83
2023/04/18 12:06:03;;;;;;;21.20;18.70;;;;;;;14.81;58.78;101255.55;113259;1237;21957;-83